tititudorancea.com
Station Historical Data
Daily Summary for May 22, 2018 Units:  Metric    English   Both
« Previous Day
Next Day »
Daily Weekly Monthly Yearly Custom
  High: Low: Average:
Temperature: -17.8 °C 11 °C 12.7 °C
Dew Point: -17.8 °C 9.3 °C 10.6 °C
Humidity: Humidity % 81 % 87 %
Wind Speed: 0 km/h 5.6 km/h 15.9 km/h
Wind Gust: 0 km/h - -
Wind:- - SW
Pressure: 0 hPa 1023.2 hPa -
Precipitation: 0.51 mm    
Historical Graphs
 
 
Ararat weather Find more about Weather in Ararat, AU


 



 


Tabular Data for May 22, 2018
Time Temperature Dew Point Pressure Wind Wind Speed Wind Gust Humidity Rainfall Rate (Hourly)
-17.8 °C -17.8 °C 0 hPa Calm     Humidity % 0 mm
00:01 12.2 °C 9.6 °C 1023.9 hPa SW 14.8 km/h 14.8 km/h 84 % 0 mm
00:06 12.1 °C 9.5 °C 1023.9 hPa SSW 16.1 km/h 16.1 km/h 84 % 0 mm
00:11 12.1 °C 9.4 °C 1023.9 hPa SW 14.8 km/h 14.8 km/h 84 % 0 mm
00:16 12 °C 9.4 °C 1023.9 hPa SW 11.1 km/h 11.1 km/h 84 % 0 mm
00:21 12 °C 9.6 °C 1023.6 hPa SW 14.8 km/h 14.8 km/h 85 % 0 mm
00:26 12 °C 9.6 °C 1023.6 hPa SW 14.8 km/h 14.8 km/h 85 % 0 mm
00:31 12 °C 9.6 °C 1023.6 hPa SW 11.1 km/h 11.1 km/h 85 % 0 mm
00:36 12.1 °C 9.4 °C 1023.6 hPa SW 13 km/h 13 km/h 84 % 0 mm
00:41 12.1 °C 9.5 °C 1023.6 hPa SW 18.5 km/h 18.5 km/h 84 % 0 mm
00:46 12.2 °C 9.6 °C 1023.6 hPa WSW 13 km/h 13 km/h 84 % 0 mm
00:51 12.2 °C 9.6 °C 1023.6 hPa WSW 20.9 km/h 20.9 km/h 84 % 0 mm
00:56 12.3 °C 9.7 °C 1023.6 hPa SW 16.7 km/h 16.7 km/h 84 % 0 mm
01:01 12.2 °C 9.6 °C 1023.6 hPa SW 9.3 km/h 9.3 km/h 84 % 0 mm
01:06 12.2 °C 9.6 °C 1023.6 hPa SW 18.5 km/h 18.5 km/h 84 % 0 mm
01:11 12.2 °C 9.6 °C 1023.6 hPa WSW 7.4 km/h 7.4 km/h 84 % 0 mm
01:16 12.2 °C 9.6 °C 1023.6 hPa WSW 11.1 km/h 11.1 km/h 84 % 0 mm
01:21 12.2 °C 9.6 °C 1023.6 hPa North 12.9 km/h 12.9 km/h 84 % 0 mm
01:26 12.2 °C 9.6 °C 1023.6 hPa WSW 7.4 km/h 7.4 km/h 84 % 0 mm
01:31 12.2 °C 9.6 °C 1023.6 hPa WSW 8 km/h 8 km/h 84 % 0 mm
01:36 12.2 °C 9.6 °C 1023.6 hPa WSW 9.3 km/h 9.3 km/h 84 % 0 mm
01:41 12.2 °C 9.6 °C 1023.6 hPa WSW 9.3 km/h 9.3 km/h 84 % 0 mm
01:46 12.2 °C 9.6 °C 1023.2 hPa WSW 11.1 km/h 11.1 km/h 84 % 0 mm
01:51 12.3 °C 9.7 °C 1023.6 hPa WSW 8 km/h 8 km/h 84 % 0 mm
01:56 12.3 °C 9.7 °C 1023.6 hPa WSW 9.3 km/h 9.3 km/h 84 % 0 mm
02:01 12.2 °C 9.6 °C 1023.6 hPa WSW 9.3 km/h 9.3 km/h 84 % 0 mm
02:06 12.2 °C 9.6 °C 1023.6 hPa WSW 7.4 km/h 7.4 km/h 84 % 0 mm
02:11 12.2 °C 9.4 °C 1023.6 hPa WSW 11.1 km/h 11.1 km/h 83 % 0 mm
02:16 12.2 °C 9.4 °C 1023.2 hPa WSW 9.3 km/h 9.3 km/h 83 % 0 mm
02:21 12.1 °C 9.3 °C 1023.2 hPa WSW 7.4 km/h 7.4 km/h 83 % 0 mm
02:26 12 °C 9.4 °C 1023.2 hPa WSW 5.6 km/h 5.6 km/h 84 % 0 mm
02:31 11.9 °C 9.3 °C 1023.2 hPa WSW 9.3 km/h 9.3 km/h 84 % 0 mm
02:36 11.9 °C 9.3 °C 1023.2 hPa WSW 11.3 km/h 11.3 km/h 84 % 0 mm
02:41 11.9 °C 9.3 °C 1023.2 hPa WSW 11.1 km/h 11.1 km/h 84 % 0 mm
02:46 12 °C 9.4 °C 1023.2 hPa WSW 13 km/h 13 km/h 84 % 0 mm
02:51 12.2 °C 9.4 °C 1023.2 hPa WSW 13 km/h 13 km/h 83 % 0 mm
02:56 12.2 °C 9.4 °C 1023.2 hPa North 16.1 km/h 16.1 km/h 83 % 0 mm
03:01 12.3 °C 9.3 °C 1023.2 hPa WSW 14.8 km/h 14.8 km/h 82 % 0 mm
03:06 12.4 °C 9.4 °C 1023.2 hPa WSW 16.7 km/h 16.7 km/h 82 % 0 mm
03:11 12.4 °C 9.4 °C 1023.2 hPa WSW 9.3 km/h 9.3 km/h 82 % 0 mm
03:16 12.4 °C 9.4 °C 1023.2 hPa WSW 16.7 km/h 16.7 km/h 82 % 0 mm
03:21 12.4 °C 9.4 °C 1023.2 hPa WSW 18.5 km/h 18.5 km/h 82 % 0 mm
03:26 12.5 °C 9.5 °C 1023.2 hPa SW 20.4 km/h 20.4 km/h 82 % 0 mm
03:31 12.5 °C 9.5 °C 1023.6 hPa WSW 18.5 km/h 18.5 km/h 82 % 0 mm
03:36 12.5 °C 9.7 °C 1023.2 hPa North 7.4 km/h 7.4 km/h 83 % 0 mm
03:41 12.4 °C 9.6 °C 1023.2 hPa WSW 6.4 km/h 6.4 km/h 83 % 0 mm
03:46 12.4 °C 9.6 °C 1023.2 hPa WSW 9.3 km/h 9.3 km/h 83 % 0 mm
03:51 12.4 °C 9.8 °C 1023.6 hPa WSW 13 km/h 13 km/h 84 % 0 mm
03:56 12.4 °C 9.8 °C 1023.2 hPa WSW 13 km/h 13 km/h 84 % 0 mm
04:01 12.4 °C 9.8 °C 1023.2 hPa WSW 16.7 km/h 16.7 km/h 84 % 0 mm
04:06 12.4 °C 9.8 °C 1023.2 hPa WSW 9.3 km/h 9.3 km/h 84 % 0 mm
04:11 12.4 °C 9.8 °C 1023.2 hPa WSW 11.1 km/h 11.1 km/h 84 % 0 mm
04:16 12.4 °C 9.8 °C 1023.2 hPa WSW 5.6 km/h 5.6 km/h 84 % 0 mm
04:21 12.3 °C 9.7 °C 1023.2 hPa WSW 8 km/h 8 km/h 84 % 0 mm
04:26 12.3 °C 9.7 °C 1023.6 hPa North 9.3 km/h 9.3 km/h 84 % 0 mm
04:31 12.3 °C 9.7 °C 1023.6 hPa WSW 5.6 km/h 5.6 km/h 84 % 0 mm
04:36 12.3 °C 9.7 °C 1023.6 hPa SW 11.1 km/h 11.1 km/h 84 % 0 mm
04:41 12.2 °C 9.6 °C 1023.6 hPa SSW 9.3 km/h 9.3 km/h 84 % 0 mm
04:46 12.2 °C 9.6 °C 1023.6 hPa SSW 11.1 km/h 11.1 km/h 84 % 0 mm
04:51 12.3 °C 9.7 °C 1023.6 hPa SSW 14.8 km/h 14.8 km/h 84 % 0 mm
04:56 12.3 °C 9.7 °C 1023.6 hPa SSW 9.3 km/h 9.3 km/h 84 % 0 mm
05:01 12.3 °C 9.5 °C 1023.6 hPa SW 18.5 km/h 18.5 km/h 83 % 0 mm
05:06 12.4 °C 9.6 °C 1023.6 hPa North 13 km/h 13 km/h 83 % 0 mm
05:11 12.4 °C 9.6 °C 1023.6 hPa SW 7.4 km/h 7.4 km/h 83 % 0 mm
05:16 12.4 °C 9.6 °C 1023.6 hPa SW 14.5 km/h 14.5 km/h 83 % 0 mm
05:21 12.4 °C 9.6 °C 1023.6 hPa SW 16.7 km/h 16.7 km/h 83 % 0 mm
05:26 12.4 °C 9.4 °C 1023.6 hPa WSW 14.5 km/h 14.5 km/h 82 % 0 mm
05:31 12.4 °C 9.4 °C 1023.6 hPa North 13 km/h 13 km/h 82 % 0 mm
05:36 12.5 °C 9.5 °C 1023.6 hPa WSW 16.7 km/h 16.7 km/h 82 % 0 mm
05:41 12.5 °C 9.5 °C 1023.6 hPa SW 18.5 km/h 18.5 km/h 82 % 0 mm
05:46 12.5 °C 9.5 °C 1023.6 hPa SW 9.3 km/h 12.9 km/h 82 % 0 mm
05:51 12.6 °C 9.6 °C 1023.6 hPa SW 18.5 km/h 18.5 km/h 82 % 0 mm
05:56 12.6 °C 9.6 °C 1023.6 hPa SW 14.8 km/h 14.8 km/h 82 % 0 mm
06:01 12.6 °C 9.6 °C 1023.9 hPa SW 18.5 km/h 18.5 km/h 82 % 0 mm
06:06 12.6 °C 9.6 °C 1023.9 hPa SSW 18.5 km/h 18.5 km/h 82 % 0 mm
06:11 12.6 °C 9.6 °C 1023.9 hPa North 14.5 km/h 14.5 km/h 82 % 0 mm
06:16 12.5 °C 9.5 °C 1023.9 hPa North 14.5 km/h 14.5 km/h 82 % 0 mm
06:21 12.5 °C 9.7 °C 1023.9 hPa SW 16.7 km/h 16.7 km/h 83 % 0 mm
06:26 12.4 °C 9.6 °C 1023.9 hPa WSW 20.4 km/h 20.4 km/h 83 % 0 mm
06:31 12.4 °C 9.6 °C 1023.9 hPa SSW 18.5 km/h 18.5 km/h 83 % 0 mm
06:36 12.4 °C 9.8 °C 1023.9 hPa WSW 18.5 km/h 18.5 km/h 84 % 0 mm
07:40 11.7 °C 9.9 °C 1024.6 hPa SW 11.3 km/h 19.3 km/h 89 % 0 mm
07:45 11.6 °C 10 °C 1024.6 hPa SW 16.7 km/h 16.7 km/h 90 % 0 mm
07:50 11.6 °C 9.9 °C 1024.6 hPa SW 12.9 km/h 19.3 km/h 90 % 0 mm
07:55 11.5 °C 9.9 °C 1024.6 hPa WSW 12.9 km/h 19.3 km/h 90 % 0 mm
08:00 11.6 °C 9.9 °C 1024.6 hPa SW 18.5 km/h 18.5 km/h 90 % 0 mm
08:05 11.6 °C 10 °C 1024.6 hPa WSW 11.3 km/h 25.7 km/h 90 % 0 mm
08:10 11.6 °C 10 °C 1024.6 hPa WSW 12.9 km/h 19.3 km/h 90 % 0 mm
08:15 11.7 °C 10.1 °C 1024.6 hPa WSW 14.5 km/h 22.5 km/h 90 % 0 mm
08:20 11.8 °C 10 °C 1024.6 hPa SW 18.5 km/h 18.5 km/h 89 % 0 mm
08:25 11.8 °C 10.1 °C 1024.6 hPa SW 12.9 km/h 19.3 km/h 89 % 0 mm
08:30 11.9 °C 10.1 °C 1024.6 hPa SW 16.1 km/h 27.4 km/h 89 % 0 mm
08:35 11.9 °C 10.2 °C 1024.9 hPa WSW 24.1 km/h 24.1 km/h 89 % 0 mm
08:40 12 °C 10.2 °C 1024.9 hPa SSW 18.5 km/h 18.5 km/h 89 % 0 mm
08:45 12.1 °C 10.1 °C 1024.9 hPa WSW 22.2 km/h 22.2 km/h 88 % 0 mm
08:50 12.1 °C 10.3 °C 1024.9 hPa SW 12.9 km/h 24.1 km/h 89 % 0 mm
08:55 12.2 °C 10.4 °C 1024.9 hPa SSW 20.4 km/h 20.4 km/h 89 % 0 mm
09:00 12.3 °C 10.5 °C 1024.9 hPa SW 18.5 km/h 18.5 km/h 89 % 0 mm
09:05 12.3 °C 10.3 °C 1024.9 hPa North 24.1 km/h 24.1 km/h 88 % 0 mm
09:10 12.4 °C 10.4 °C 1024.9 hPa SSW 19.3 km/h 19.3 km/h 88 % 0 mm
09:15 12.4 °C 10.5 °C 1024.9 hPa SW 11.3 km/h 22.5 km/h 88 % 0 mm
09:20 12.5 °C 10.6 °C 1024.9 hPa SW 11.3 km/h 24.1 km/h 88 % 0 mm
09:25 12.6 °C 10.6 °C 1024.9 hPa WSW 19.3 km/h 22.5 km/h 88 % 0 mm
09:30 12.6 °C 10.7 °C 1024.9 hPa WSW 9.7 km/h 24.1 km/h 88 % 0 mm
09:35 12.7 °C 10.8 °C 1025.3 hPa North 13 km/h 13 km/h 88 % 0 mm
09:40 12.7 °C 10.6 °C 1025.3 hPa North 24.1 km/h 24.1 km/h 87 % 0 mm
09:45 12.8 °C 10.7 °C 1025.3 hPa SW 12.9 km/h 22.5 km/h 87 % 0 mm
09:50 12.8 °C 10.7 °C 1025.3 hPa SW 12.9 km/h 19.3 km/h 87 % 0 mm
09:55 12.8 °C 10.9 °C 1025.3 hPa SW 18.5 km/h 18.5 km/h 88 % 0 mm
10:00 12.9 °C 10.9 °C 1025.3 hPa SW 8 km/h 12.9 km/h 88 % 0 mm
10:05 12.9 °C 10.8 °C 1025.3 hPa SW 9.7 km/h 19.3 km/h 87 % 0 mm
10:10 12.9 °C 10.8 °C 1025.3 hPa SW 16.7 km/h 16.7 km/h 87 % 0 mm
10:15 13 °C 11.1 °C 1025.3 hPa WSW 16.1 km/h 29 km/h 88 % 0 mm
10:20 13 °C 11.1 °C 1025.3 hPa SW 14.8 km/h 15.8 km/h 88 % 0 mm
10:25 13 °C 11.1 °C 1025.3 hPa SW 14.5 km/h 29 km/h 88 % 0 mm
10:30 13.1 °C 11.2 °C 1025.3 hPa SW 11.3 km/h 27.4 km/h 88 % 0 mm
10:35 13.2 °C 11.1 °C 1025.3 hPa WSW 25.9 km/h 25.9 km/h 87 % 0 mm
10:40 13.3 °C 11.2 °C 1025.3 hPa SW 22.2 km/h 22.2 km/h 87 % 0 mm
10:45 13.3 °C 11.2 °C 1025.3 hPa SW 18.5 km/h 18.5 km/h 87 % 0 mm
10:50 13.3 °C 11.3 °C 1025.3 hPa SW 16.7 km/h 16.7 km/h 88 % 0 mm
10:55 13.3 °C 11.4 °C 1025.3 hPa West 11.3 km/h 24.1 km/h 88 % 0 mm
10:56 13.3 °C 11.4 °C 1025.3 hPa North 22.2 km/h 22.2 km/h 88 % 0 mm
11:01 13.5 °C 11.6 °C 1025.3 hPa North 16.1 km/h 16.1 km/h 88 % 0 mm
11:06 13.7 °C 11.4 °C 1025.3 hPa WSW 22.2 km/h 22.2 km/h 86 % 0 mm
11:11 13.9 °C 11.6 °C 1025.3 hPa SW 14.8 km/h 14.8 km/h 86 % 0 mm
11:16 14.2 °C 11.7 °C 1025.3 hPa SW 20.4 km/h 20.4 km/h 85 % 0 mm
11:21 14.5 °C 12 °C 1025.3 hPa SW 18.5 km/h 18.5 km/h 85 % 0 mm
11:26 14.6 °C 11.6 °C 1025.6 hPa WSW 18.5 km/h 18.5 km/h 82 % 0 mm
11:31 14.5 °C 11.4 °C 1025.6 hPa WSW 31.5 km/h 31.5 km/h 82 % 0 mm
11:36 14.4 °C 11.3 °C 1025.6 hPa SW 25.9 km/h 25.9 km/h 82 % 0 mm
11:41 14.5 °C 11.4 °C 1025.3 hPa SW 19.3 km/h 19.3 km/h 82 % 0 mm
11:46 14.3 °C 11.3 °C 1025.3 hPa SW 25.9 km/h 25.9 km/h 82 % 0 mm
11:51 14.4 °C 11.4 °C 1025.3 hPa WSW 25.9 km/h 25.9 km/h 82 % 0 mm
11:56 14.4 °C 11.2 °C 1025.3 hPa SW 31.5 km/h 31.5 km/h 81 % 0 mm
12:01 14.6 °C 11.5 °C 1025.3 hPa SW 24.1 km/h 24.1 km/h 82 % 0 mm
12:06 14.4 °C 11.2 °C 1025.3 hPa SW 31.5 km/h 31.5 km/h 81 % 0 mm
12:07 14.4 °C 11.2 °C 1025.3 hPa SW 31.5 km/h 31.5 km/h 81 % 0 mm
12:12 14.4 °C 11.6 °C 1025.3 hPa SSW 20.9 km/h 20.9 km/h 83 % 0 mm
12:17 14.4 °C 11.6 °C 1025.3 hPa SW 25.9 km/h 25.9 km/h 83 % 0 mm
12:22 14.2 °C 11.4 °C 1025.3 hPa North 31.5 km/h 31.5 km/h 83 % 0 mm
12:27 14 °C 11.5 °C 1024.9 hPa WSW 27.8 km/h 27.8 km/h 85 % 0 mm
12:32 13.9 °C 11.8 °C 1024.9 hPa SW 22.2 km/h 22.2 km/h 87 % 0 mm
12:37 14 °C 11.9 °C 1024.9 hPa WSW 17.7 km/h 17.7 km/h 87 % 0 mm
12:42 14 °C 11.7 °C 1024.9 hPa SW 22.5 km/h 22.5 km/h 86 % 0 mm
12:47 13.9 °C 11.8 °C 1024.9 hPa SW 20.4 km/h 20.4 km/h 87 % 0 mm
12:52 13.8 °C 11.7 °C 1024.9 hPa SSW 25.7 km/h 25.7 km/h 87 % 0 mm
12:57 13.8 °C 11.8 °C 1024.6 hPa SW 18.5 km/h 18.5 km/h 88 % 0 mm
13:02 13.9 °C 11.9 °C 1024.6 hPa SW 14.8 km/h 14.8 km/h 88 % 0 mm
13:07 13.8 °C 11.9 °C 1024.6 hPa SW 22.2 km/h 22.2 km/h 88 % 0 mm
13:12 13.8 °C 11.9 °C 1024.6 hPa SSW 18.5 km/h 18.5 km/h 88 % 0 mm
13:17 13.9 °C 11.9 °C 1024.6 hPa WSW 20.4 km/h 20.4 km/h 88 % 0 mm
13:22 13.9 °C 12 °C 1024.6 hPa SSW 22.5 km/h 22.5 km/h 88 % 0 mm
13:27 14.1 °C 11.9 °C 1024.6 hPa SW 13 km/h 13 km/h 87 % 0 mm
13:32 14.1 °C 11.8 °C 1024.6 hPa SSW 16.7 km/h 16.7 km/h 86 % 0 mm
13:37 14.2 °C 11.8 °C 1024.6 hPa SW 14.8 km/h 14.8 km/h 86 % 0 mm
13:42 14.3 °C 11.8 °C 1024.6 hPa SW 14.8 km/h 14.8 km/h 85 % 0 mm
13:47 14.3 °C 11.8 °C 1024.3 hPa North 18.5 km/h 18.5 km/h 85 % 0 mm
13:52 14.3 °C 12 °C 1024.6 hPa North 18.5 km/h 18.5 km/h 86 % 0 mm
13:57 14.5 °C 12 °C 1024.6 hPa WSW 18.5 km/h 18.5 km/h 85 % 0 mm
14:02 14.6 °C 12.1 °C 1024.3 hPa SW 19.3 km/h 19.3 km/h 85 % 0 mm
14:07 14.6 °C 11.9 °C 1024.3 hPa SSW 29.6 km/h 29.6 km/h 84 % 0 mm
14:12 14.7 °C 11.9 °C 1024.3 hPa SW 27.8 km/h 27.8 km/h 83 % 0 mm
14:17 14.8 °C 11.9 °C 1024.3 hPa SW 22.2 km/h 22.2 km/h 83 % 0 mm
14:22 14.4 °C 11.8 °C 1024.3 hPa SW 18.5 km/h 18.5 km/h 84 % 0 mm
14:27 14.4 °C 12.1 °C 1024.3 hPa WSW 25.9 km/h 25.9 km/h 86 % 0 mm
14:32 14.5 °C 12.2 °C 1024.3 hPa WSW 14.8 km/h 14.8 km/h 86 % 0 mm
14:37 14.6 °C 12.3 °C 1024.3 hPa SW 16.7 km/h 16.7 km/h 86 % 0 mm
14:42 14.7 °C 12.2 °C 1024.3 hPa SW 18.5 km/h 18.5 km/h 85 % 0 mm
14:47 14.8 °C 12.3 °C 1024.6 hPa SW 25.9 km/h 25.9 km/h 85 % 0 mm
14:52 14.8 °C 12.1 °C 1024.6 hPa SW 20.9 km/h 20.9 km/h 84 % 0 mm
14:57 14.7 °C 12.1 °C 1024.3 hPa West 31.5 km/h 31.5 km/h 84 % 0 mm
15:02 14.9 °C 12 °C 1024.3 hPa WSW 24.1 km/h 24.1 km/h 83 % 0 mm
15:07 14.9 °C 12 °C 1024.6 hPa SSW 18.5 km/h 18.5 km/h 83 % 0 mm
15:12 14.6 °C 12.1 °C 1024.6 hPa WSW 22.2 km/h 22.2 km/h 85 % 0 mm
15:17 14.2 °C 12.1 °C 1024.6 hPa SW 18.5 km/h 18.5 km/h 87 % 0.25 mm
15:22 14.1 °C 12.3 °C 1024.6 hPa North 18.5 km/h 18.5 km/h 89 % 0.51 mm
15:27 14 °C 12.2 °C 1024.6 hPa North 18.5 km/h 18.5 km/h 89 % 0.51 mm
15:32 14 °C 12.2 °C 1024.6 hPa WSW 11.1 km/h 11.1 km/h 89 % 0.51 mm
15:37 14 °C 12.2 °C 1024.6 hPa WSW 18.5 km/h 18.5 km/h 89 % 0.51 mm
15:42 14.2 °C 12.2 °C 1024.6 hPa SW 22.2 km/h 22.2 km/h 88 % 0.51 mm
15:47 14.2 °C 12.3 °C 1024.6 hPa SSW 16.7 km/h 16.7 km/h 88 % 0.51 mm
15:52 14.3 °C 12.3 °C 1024.6 hPa SSW 16.7 km/h 16.7 km/h 88 % 0.51 mm
15:57 14.3 °C 12.4 °C 1024.6 hPa SW 14.5 km/h 14.5 km/h 88 % 0.51 mm
16:02 14.4 °C 12.4 °C 1024.6 hPa SW 13 km/h 13 km/h 88 % 0.51 mm
16:07 14.4 °C 12.3 °C 1024.6 hPa WSW 18.5 km/h 18.5 km/h 87 % 0.51 mm
16:12 14.4 °C 12.3 °C 1024.6 hPa SW 18.5 km/h 18.5 km/h 87 % 0.51 mm
16:17 14.6 °C 12.4 °C 1024.6 hPa SSW 13 km/h 13 km/h 87 % 0.25 mm
16:22 14.6 °C 12.3 °C 1024.6 hPa SSW 14.8 km/h 14.8 km/h 86 % 0 mm
16:27 14.4 °C 12.1 °C 1024.6 hPa SW 18.5 km/h 18.5 km/h 86 % 0 mm
16:32 14.4 °C 12.1 °C 1024.6 hPa SSW 13 km/h 13 km/h 86 % 0 mm
16:37 14.3 °C 12 °C 1024.9 hPa SSW 17.7 km/h 17.7 km/h 86 % 0 mm
16:42 14.2 °C 11.9 °C 1024.9 hPa SSW 16.7 km/h 16.7 km/h 86 % 0 mm
16:48 14.2 °C 11.8 °C 1024.9 hPa SSW 20.4 km/h 20.4 km/h 86 % 0 mm
16:53 14.1 °C 11.9 °C 1024.9 hPa SSW 18.5 km/h 18.5 km/h 87 % 0 mm
16:58 13.9 °C 11.8 °C 1024.9 hPa SSW 16.7 km/h 16.7 km/h 87 % 0 mm
17:03 13.9 °C 11.8 °C 1024.9 hPa SW 22.5 km/h 22.5 km/h 87 % 0 mm
17:08 13.8 °C 11.7 °C 1025.3 hPa SSW 22.2 km/h 22.2 km/h 87 % 0 mm
17:13 13.6 °C 11.7 °C 1025.3 hPa SSW 18.5 km/h 18.5 km/h 88 % 0 mm
17:18 13.5 °C 11.7 °C 1025.3 hPa South 14.8 km/h 14.8 km/h 89 % 0 mm
17:23 13.4 °C 11.6 °C 1025.3 hPa SSW 16.7 km/h 16.7 km/h 89 % 0 mm
17:28 13.3 °C 11.7 °C 1025.3 hPa SW 20.4 km/h 20.4 km/h 90 % 0 mm
17:33 13.3 °C 11.7 °C 1025.3 hPa SW 18.5 km/h 18.5 km/h 90 % 0 mm
17:38 13.2 °C 11.6 °C 1025.3 hPa North 11.1 km/h 11.1 km/h 90 % 0 mm
17:43 13.2 °C 11.6 °C 1025.3 hPa SSW 18.5 km/h 18.5 km/h 90 % 0 mm
17:48 13.1 °C 11.5 °C 1025.3 hPa SSW 18.5 km/h 18.5 km/h 90 % 0 mm
17:53 13.1 °C 11.4 °C 1025.3 hPa North 14.8 km/h 14.8 km/h 90 % 0 mm
17:58 13.1 °C 11.4 °C 1025.6 hPa SSW 18.5 km/h 18.5 km/h 90 % 0 mm
18:03 13 °C 11.4 °C 1025.6 hPa SW 11.3 km/h 11.3 km/h 90 % 0 mm
18:08 12.9 °C 11.3 °C 1025.6 hPa SSW 16.7 km/h 16.7 km/h 90 % 0 mm
18:09 12.9 °C 11.3 °C 1025.6 hPa SSW 14.8 km/h 14.8 km/h 90 % 0 mm
18:14 12.8 °C 11.2 °C 1025.6 hPa SW 11.1 km/h 11.1 km/h 90 % 0 mm
18:19 12.8 °C 11.2 °C 1025.6 hPa SW 11.1 km/h 11.1 km/h 90 % 0 mm
18:24 12.7 °C 11.1 °C 1025.6 hPa SW 16.7 km/h 16.7 km/h 90 % 0 mm
18:29 12.8 °C 11.3 °C 1025.6 hPa SW 18.5 km/h 18.5 km/h 91 % 0 mm
18:34 12.8 °C 11.3 °C 1026 hPa SW 16.7 km/h 16.7 km/h 91 % 0 mm
18:39 12.7 °C 11.1 °C 1026 hPa SSW 20.4 km/h 20.4 km/h 90 % 0 mm
18:44 12.6 °C 11 °C 1026 hPa SSW 13 km/h 13 km/h 90 % 0 mm
18:49 12.6 °C 11 °C 1026 hPa SW 22.2 km/h 22.2 km/h 90 % 0 mm
18:54 12.6 °C 10.9 °C 1026 hPa SW 19.3 km/h 19.3 km/h 90 % 0 mm
18:59 12.6 °C 10.9 °C 1026 hPa SSW 13 km/h 13 km/h 90 % 0 mm
19:04 12.6 °C 10.9 °C 1026.3 hPa SW 13 km/h 13 km/h 90 % 0 mm
19:09 12.5 °C 11.1 °C 1026.3 hPa SW 9.7 km/h 9.7 km/h 91 % 0 mm
19:14 12.4 °C 11 °C 1026.3 hPa SW 13 km/h 13 km/h 91 % 0 mm
19:19 12.4 °C 11 °C 1026.3 hPa SW 13 km/h 13 km/h 91 % 0 mm
19:24 12.4 °C 10.9 °C 1026.3 hPa SSW 18.5 km/h 18.5 km/h 91 % 0 mm
19:29 12.3 °C 10.9 °C 1026.3 hPa SSW 16.7 km/h 16.7 km/h 91 % 0 mm
19:34 12.3 °C 10.8 °C 1026.3 hPa SSW 16.7 km/h 16.7 km/h 91 % 0 mm
19:39 12.2 °C 10.8 °C 1026.3 hPa WSW 24.1 km/h 24.1 km/h 91 % 0 mm
19:44 12.2 °C 10.7 °C 1026.3 hPa SW 14.8 km/h 14.8 km/h 91 % 0 mm
19:49 12.1 °C 10.7 °C 1026.3 hPa SW 18.5 km/h 18.5 km/h 91 % 0 mm
19:54 12.1 °C 10.6 °C 1026.6 hPa SSW 20.4 km/h 20.4 km/h 91 % 0 mm
19:59 12.1 °C 10.6 °C 1026.3 hPa SSW 24.1 km/h 24.1 km/h 91 % 0 mm
20:04 12 °C 10.6 °C 1026.3 hPa SW 16.1 km/h 16.1 km/h 91 % 0 mm
20:05 11.9 °C 10.5 °C 1026.3 hPa SSW 22.2 km/h 22.2 km/h 91 % 0 mm
20:10 11.9 °C 10.4 °C 1026.3 hPa SSW 16.7 km/h 16.7 km/h 91 % 0 mm
20:15 11.9 °C 10.4 °C 1026.3 hPa SSW 22.5 km/h 22.5 km/h 91 % 0 mm
20:20 11.9 °C 10.3 °C 1026.3 hPa SW 20.4 km/h 20.4 km/h 90 % 0 mm
20:25 11.9 °C 10.3 °C 1026.3 hPa SW 18.5 km/h 18.5 km/h 90 % 0 mm
20:30 11.9 °C 10.3 °C 1026.3 hPa SW 18.5 km/h 18.5 km/h 90 % 0 mm
20:36 11.9 °C 10.3 °C 1026.3 hPa SSW 16.7 km/h 16.7 km/h 90 % 0 mm
20:41 11.8 °C 10.2 °C 1026.3 hPa SSW 13 km/h 13 km/h 90 % 0 mm
20:45 11.7 °C 10.1 °C 1026.3 hPa SSW 11.1 km/h 11.1 km/h 90 % 0 mm
20:51 11.7 °C 10.2 °C 1026.3 hPa SSW 13 km/h 13 km/h 91 % 0 mm
20:56 11.7 °C 10.2 °C 1026.3 hPa SSW 13 km/h 13 km/h 91 % 0 mm
21:00 11.7 °C 10.2 °C 1026.3 hPa SSW 13 km/h 13 km/h 91 % 0 mm
21:05 11.7 °C 10.3 °C 1026.3 hPa SSW 13 km/h 13 km/h 91 % 0 mm
21:10 11.7 °C 10.3 °C 1026.3 hPa SSW 9.3 km/h 9.3 km/h 91 % 0 mm
21:15 11.8 °C 10.3 °C 1026.6 hPa SSW 11.3 km/h 11.4 km/h 91 % 0 mm
21:20 11.8 °C 10.3 °C 1026.3 hPa SSW 7.4 km/h 7.4 km/h 91 % 0 mm
21:26 11.7 °C 10.3 °C 1026.3 hPa SSW 14.8 km/h 14.8 km/h 91 % 0 mm
21:30 11.7 °C 10.3 °C 1026.6 hPa SSW 9.3 km/h 9.7 km/h 91 % 0 mm
21:35 11.8 °C 10.3 °C 1026.3 hPa SSW 9.3 km/h 9.3 km/h 91 % 0 mm
21:41 11.8 °C 10.3 °C 1026.6 hPa SW 13 km/h 13 km/h 91 % 0 mm
21:46 11.7 °C 10.3 °C 1026.6 hPa SW 11.3 km/h 11.3 km/h 91 % 0 mm
21:51 11.7 °C 10.3 °C 1026.6 hPa WSW 13 km/h 13 km/h 91 % 0 mm
21:56 11.7 °C 10.4 °C 1026.6 hPa SW 11.1 km/h 11.1 km/h 92 % 0 mm
22:00 11.6 °C 10.3 °C 1026.6 hPa WSW 13 km/h 13 km/h 92 % 0 mm
22:06 11.6 °C 10.3 °C 1026.6 hPa SW 11.1 km/h 11.1 km/h 92 % 0 mm
22:11 11.5 °C 10.2 °C 1026.6 hPa WSW 9.7 km/h 9.7 km/h 92 % 0 mm
22:16 11.5 °C 10.2 °C 1026.6 hPa SW 11.1 km/h 11.1 km/h 92 % 0 mm
22:21 11.4 °C 10.2 °C 1026.6 hPa SW 11.1 km/h 11.1 km/h 92 % 0 mm
22:26 11.4 °C 10.1 °C 1026.6 hPa SW 13 km/h 13 km/h 92 % 0 mm
22:31 11.3 °C 10.1 °C 1026.3 hPa SSW 14.8 km/h 14.8 km/h 92 % 0 mm
22:36 11.3 °C 10.1 °C 1026.3 hPa SSW 11.1 km/h 11.1 km/h 92 % 0 mm
22:41 11.4 °C 10.1 °C 1026.3 hPa SSW 18.5 km/h 18.5 km/h 92 % 0 mm
22:46 11.4 °C 10.1 °C 1026.3 hPa SSW 14.8 km/h 14.8 km/h 92 % 0 mm
22:51 11.3 °C 10 °C 1026.6 hPa SW 16.7 km/h 16.7 km/h 92 % 0 mm
22:56 11.2 °C 9.9 °C 1026.3 hPa SW 18.5 km/h 18.5 km/h 92 % 0 mm
23:01 11.1 °C 9.8 °C 1026.3 hPa SW 20.4 km/h 20.4 km/h 92 % 0 mm
23:06 11.1 °C 9.8 °C 1026.3 hPa SW 16.7 km/h 16.7 km/h 92 % 0 mm
23:11 11.1 °C 9.8 °C 1026.3 hPa SW 18.5 km/h 18.5 km/h 92 % 0 mm
23:16 11.1 °C 9.8 °C 1026.3 hPa SW 14.8 km/h 14.8 km/h 92 % 0 mm
23:21 11.1 °C 9.8 °C 1026.3 hPa SW 14.8 km/h 14.8 km/h 92 % 0 mm
23:26 11 °C 9.7 °C 1026.3 hPa SW 11.1 km/h 11.1 km/h 92 % 0 mm
23:31 11 °C 9.7 °C 1026.3 hPa SW 16.7 km/h 16.7 km/h 92 % 0 mm
23:36 11.1 °C 9.8 °C 1026.3 hPa SW 14.8 km/h 14.8 km/h 92 % 0 mm
23:41 11.1 °C 9.8 °C 1026 hPa SW 9.3 km/h 9.3 km/h 92 % 0 mm
23:46 11.1 °C 9.8 °C 1026.3 hPa SW 14.8 km/h 14.8 km/h 92 % 0 mm
23:51 11.1 °C 9.8 °C 1026.3 hPa SSW 11.1 km/h 11.1 km/h 92 % 0 mm
23:56 11.2 °C 9.9 °C 1026.3 hPa SSW 11.1 km/h 11.1 km/h 92 % 0 mm
Ararat Weather
Compliments of Weather Underground - 2.25 mb
Click here to send mail.


ABOUT

Live weather data from Ararat, Victoria, Australia, 3377
Data uploaded from Cumulus every 5 minutes to Weather Underground.
This site then downloads the raw data for formatting and display.
Metric and imperial data can be displayed. Graphs and historical data available.
Includes Sun and Moon times and rain image live from BOM.

Check out Ararat Weather on Facebook, Twitter and Google +

Help support ongoing costs by checking out the ads





Follow @AraratWeather